Time;durP1;ratioP1;P1;durP2;ratioP2;P2;SDS_P1;SDS_P2;PMS_P1;PMS_P2;Temp;Humidity;BMP_temperature;BMP_pressure;BME280_temperature;BME280_humidity;BME280_pressure;Samples;Min_cycle;Max_cycle;Signal;HPM_P1;HPM_P2
2022/03/06 00:01:30;;;;;;;4.57;3.70;;;;;;;;;;4976056;28;20225;-72
2022/03/06 00:03:58;;;;;;;4.03;3.40;;;;;;;;;;4944313;28;20301;-73
2022/03/06 00:06:28;;;;;;;5.27;3.63;;;;;;;;;;4967629;28;20301;-73
2022/03/06 00:08:53;;;;;;;5.03;3.67;;;;;;;;;;4958372;28;20234;-72
2022/03/06 00:11:24;;;;;;;6.33;3.53;;;;;;;;;;4966911;28;20723;-73
2022/03/06 00:13:50;;;;;;;4.20;3.03;;;;;;;;;;4968754;28;20229;-73
2022/03/06 00:16:20;;;;;;;5.27;3.70;;;;;;;;;;4940679;28;20305;-72
2022/03/06 00:18:45;;;;;;;4.53;3.37;;;;;;;;;;4979854;28;20760;-72
2022/03/06 00:21:13;;;;;;;4.93;3.63;;;;;;;;;;4963558;28;20225;-72
2022/03/06 00:23:39;;;;;;;5.10;3.77;;;;;;;;;;4939383;28;20241;-71
2022/03/06 00:26:07;;;;;;;5.60;3.40;;;;;;;;;;4964112;28;20299;-72
2022/03/06 00:28:33;;;;;;;4.37;3.20;;;;;;;;;;4972317;28;20230;-71
2022/03/06 00:30:58;;;;;;;6.40;3.60;;;;;;;;;;4941833;28;20328;-72
2022/03/06 00:33:24;;;;;;;5.47;3.60;;;;;;;;;;4968326;28;20225;-72
2022/03/06 00:35:51;;;;;;;3.87;3.20;;;;;;;;;;4973034;28;20307;-73
2022/03/06 00:38:16;;;;;;;4.50;3.60;;;;;;;;;;4965203;28;20674;-72
2022/03/06 00:40:48;;;;;;;5.10;3.43;;;;;;;;;;4955661;28;20221;-73
2022/03/06 00:43:16;;;;;;;4.80;3.30;;;;;;;;;;4945195;28;20720;-72
2022/03/06 00:45:42;;;;;;;3.80;3.23;;;;;;;;;;4949538;28;20225;-72
2022/03/06 00:48:10;;;;;;;4.07;3.47;;;;;;;;;;4956641;28;20245;-72
2022/03/06 00:50:41;;;;;;;4.63;3.70;;;;;;;;;;4968349;28;20778;-72
2022/03/06 00:53:09;;;;;;;4.33;3.30;;;;;;;;;;4944756;28;20233;-73
2022/03/06 00:55:37;;;;;;;5.87;3.27;;;;;;;;;;4955563;28;20232;-72
2022/03/06 00:58:09;;;;;;;4.03;3.60;;;;;;;;;;4948020;28;20630;-72
2022/03/06 01:00:39;;;;;;;4.50;3.77;;;;;;;;;;4924229;28;20264;-72
2022/03/06 01:03:06;;;;;;;5.17;3.30;;;;;;;;;;4946935;28;20295;-73
2022/03/06 01:05:32;;;;;;;4.40;3.60;;;;;;;;;;4947830;28;20229;-71
2022/03/06 01:08:02;;;;;;;5.30;3.57;;;;;;;;;;4940513;28;20218;-73
2022/03/06 01:10:28;;;;;;;4.77;3.40;;;;;;;;;;4974363;28;20313;-72
2022/03/06 01:12:54;;;;;;;4.57;3.60;;;;;;;;;;4950444;28;20325;-72
2022/03/06 01:15:22;;;;;;;5.03;3.53;;;;;;;;;;4942307;28;20341;-72
2022/03/06 01:17:47;;;;;;;4.40;3.63;;;;;;;;;;4944364;28;20229;-72
2022/03/06 01:20:17;;;;;;;4.97;3.40;;;;;;;;;;4941598;28;20230;-72
2022/03/06 01:22:46;;;;;;;3.97;3.37;;;;;;;;;;4979941;28;20238;-73
2022/03/06 01:25:16;;;;;;;6.93;3.47;;;;;;;;;;4962540;28;20225;-72
2022/03/06 01:27:44;;;;;;;3.93;3.30;;;;;;;;;;4989611;28;20229;-72
2022/03/06 01:30:15;;;;;;;4.53;3.40;;;;;;;;;;4964778;28;20233;-72
2022/03/06 01:32:43;;;;;;;5.80;3.33;;;;;;;;;;4989995;28;20246;-72
2022/03/06 01:35:13;;;;;;;4.63;3.07;;;;;;;;;;4966317;28;20226;-72
2022/03/06 01:37:38;;;;;;;4.97;3.23;;;;;;;;;;4975040;28;20324;-72
2022/03/06 01:40:09;;;;;;;4.77;3.33;;;;;;;;;;4963536;28;20260;-72
2022/03/06 01:42:43;;;;;;;4.03;3.17;;;;;;;;;;4986112;28;20257;-72
2022/03/06 01:45:09;;;;;;;5.50;3.40;;;;;;;;;;4954647;28;20313;-72
2022/03/06 01:47:41;;;;;;;6.10;3.43;;;;;;;;;;4926478;28;20226;-73
2022/03/06 01:50:09;;;;;;;4.47;3.33;;;;;;;;;;4936919;28;20285;-72
2022/03/06 01:52:34;;;;;;;4.30;3.30;;;;;;;;;;4941626;28;20604;-72
2022/03/06 01:55:00;;;;;;;4.73;3.47;;;;;;;;;;4927373;28;20230;-72
2022/03/06 01:57:28;;;;;;;4.13;3.13;;;;;;;;;;4949932;28;20295;-71
2022/03/06 01:59:56;;;;;;;3.90;2.73;;;;;;;;;;4945727;28;20261;-72
2022/03/06 02:02:23;;;;;;;6.57;3.80;;;;;;;;;;4964297;28;20790;-72
2022/03/06 02:04:49;;;;;;;5.17;3.20;;;;;;;;;;4968399;28;20230;-72
2022/03/06 02:07:14;;;;;;;4.80;3.23;;;;;;;;;;4941814;28;20376;-72
2022/03/06 02:09:39;;;;;;;3.83;3.30;;;;;;;;;;4949190;28;20314;-72
2022/03/06 02:12:26;;;;;;;4.93;3.10;;;;;;;;;;4967552;28;20316;-72
2022/03/06 02:14:55;;;;;;;3.80;2.97;;;;;;;;;;4972425;28;20221;-72
2022/03/06 02:17:24;;;;;;;5.40;3.50;;;;;;;;;;4952309;28;20222;-71
2022/03/06 02:20:12;;;;;;;4.83;3.30;;;;;;;;;;4943777;28;20313;-71
2022/03/06 02:22:41;;;;;;;4.63;2.97;;;;;;;;;;4959267;28;20230;-71
2022/03/06 02:25:17;;;;;;;4.37;3.00;;;;;;;;;;4950915;28;20225;-73
2022/03/06 02:27:45;;;;;;;3.80;2.80;;;;;;;;;;4955941;28;20234;-71
2022/03/06 02:30:15;;;;;;;4.40;3.03;;;;;;;;;;4946428;28;20586;-71
2022/03/06 02:32:43;;;;;;;4.23;3.07;;;;;;;;;;4950285;28;20222;-71
2022/03/06 02:35:09;;;;;;;4.50;3.33;;;;;;;;;;4940722;28;20226;-71
2022/03/06 02:37:34;;;;;;;4.90;3.20;;;;;;;;;;4934046;28;20339;-71
2022/03/06 02:40:03;;;;;;;4.23;3.13;;;;;;;;;;4948216;28;20218;-71
2022/03/06 02:42:30;;;;;;;3.63;2.90;;;;;;;;;;4953177;28;20269;-72
2022/03/06 02:44:56;;;;;;;4.03;3.40;;;;;;;;;;4984664;28;20229;-72
2022/03/06 02:47:25;;;;;;;4.43;3.00;;;;;;;;;;4940528;28;20225;-72
2022/03/06 02:49:51;;;;;;;5.10;2.97;;;;;;;;;;4964197;28;20229;-71
2022/03/06 02:52:16;;;;;;;5.87;2.80;;;;;;;;;;4941703;28;20228;-71
2022/03/06 02:54:44;;;;;;;5.60;3.07;;;;;;;;;;4940527;28;20611;-72
2022/03/06 02:57:12;;;;;;;4.43;2.90;;;;;;;;;;4947890;28;20226;-71
2022/03/06 02:59:40;;;;;;;3.70;3.10;;;;;;;;;;4954754;28;20230;-71
2022/03/06 03:02:08;;;;;;;3.40;3.03;;;;;;;;;;4958071;28;20225;-72
2022/03/06 03:04:34;;;;;;;4.33;3.20;;;;;;;;;;4948413;28;20651;-71
2022/03/06 03:06:59;;;;;;;3.13;2.83;;;;;;;;;;4941730;28;20346;-71
2022/03/06 03:09:29;;;;;;;3.20;2.77;;;;;;;;;;4949678;28;20226;-71
2022/03/06 03:11:55;;;;;;;3.80;2.83;;;;;;;;;;4951748;28;20273;-71
2022/03/06 03:14:20;;;;;;;3.93;2.77;;;;;;;;;;4967377;28;20230;-71
2022/03/06 03:16:46;;;;;;;4.10;2.60;;;;;;;;;;4946887;28;20226;-71
2022/03/06 03:19:11;;;;;;;3.93;2.70;;;;;;;;;;4939899;28;20308;-71
2022/03/06 03:21:44;;;;;;;4.13;2.63;;;;;;;;;;4957674;28;20218;-72
2022/03/06 03:24:12;;;;;;;4.27;3.00;;;;;;;;;;4953358;28;20594;-72
2022/03/06 03:26:40;;;;;;;4.17;2.57;;;;;;;;;;4942787;28;20253;-71
2022/03/06 03:29:15;;;;;;;4.70;3.10;;;;;;;;;;4960777;28;20213;-71
2022/03/06 03:31:40;;;;;;;4.40;2.80;;;;;;;;;;4939829;28;20281;-72
2022/03/06 03:34:10;;;;;;;4.57;3.10;;;;;;;;;;4941409;28;20218;-72
2022/03/06 03:36:36;;;;;;;4.73;2.83;;;;;;;;;;4947355;28;20233;-72
2022/03/06 03:39:01;;;;;;;3.90;2.83;;;;;;;;;;4942631;28;20352;-72
2022/03/06 03:41:32;;;;;;;4.27;2.87;;;;;;;;;;4957245;28;20309;-72
2022/03/06 03:44:00;;;;;;;4.50;3.00;;;;;;;;;;4965316;28;21016;-71
2022/03/06 03:46:25;;;;;;;3.43;2.60;;;;;;;;;;4955055;28;20242;-72
2022/03/06 03:48:53;;;;;;;4.57;2.73;;;;;;;;;;4921865;28;20226;-71
2022/03/06 03:51:21;;;;;;;4.10;2.90;;;;;;;;;;4948984;28;20756;-71
2022/03/06 03:53:51;;;;;;;4.00;3.10;;;;;;;;;;4939979;28;20273;-72
2022/03/06 03:56:21;;;;;;;3.23;2.90;;;;;;;;;;4961252;28;20222;-71
2022/03/06 03:58:46;;;;;;;4.37;2.90;;;;;;;;;;4960408;28;20279;-71
2022/03/06 04:01:12;;;;;;;3.87;2.73;;;;;;;;;;4973311;28;20229;-72
2022/03/06 04:03:39;;;;;;;5.07;2.83;;;;;;;;;;4981011;28;20237;-72
2022/03/06 04:06:05;;;;;;;6.60;2.70;;;;;;;;;;4938426;28;20226;-73
2022/03/06 04:08:35;;;;;;;2.97;2.70;;;;;;;;;;4962375;28;20225;-72
2022/03/06 04:11:05;;;;;;;3.73;2.80;;;;;;;;;;4940038;28;20230;-72
2022/03/06 04:13:31;;;;;;;4.27;2.90;;;;;;;;;;4940793;28;20313;-73
2022/03/06 04:15:56;;;;;;;5.23;2.80;;;;;;;;;;4940223;28;20312;-72
2022/03/06 04:18:22;;;;;;;4.07;2.90;;;;;;;;;;4951303;28;20247;-72
2022/03/06 04:20:47;;;;;;;4.53;3.10;;;;;;;;;;4978556;28;20229;-73
2022/03/06 04:23:13;;;;;;;4.47;2.87;;;;;;;;;;4961511;28;20246;-72
2022/03/06 04:25:39;;;;;;;4.30;2.80;;;;;;;;;;4954824;28;20289;-72
2022/03/06 04:28:06;;;;;;;3.50;2.67;;;;;;;;;;4956697;28;20352;-72
2022/03/06 04:30:34;;;;;;;4.43;2.60;;;;;;;;;;4939830;28;20217;-72
2022/03/06 04:33:00;;;;;;;3.07;2.77;;;;;;;;;;4940510;28;20222;-72
2022/03/06 04:35:26;;;;;;;5.23;2.87;;;;;;;;;;4966361;28;20229;-72
2022/03/06 04:37:53;;;;;;;3.60;2.80;;;;;;;;;;4947362;28;20242;-72
2022/03/06 04:40:22;;;;;;;4.37;2.70;;;;;;;;;;4937995;28;20284;-72
2022/03/06 04:42:48;;;;;;;3.43;2.80;;;;;;;;;;4934772;28;20244;-72
2022/03/06 04:45:14;;;;;;;3.33;2.70;;;;;;;;;;4942803;28;20692;-72
2022/03/06 04:47:41;;;;;;;3.53;2.40;;;;;;;;;;4954708;28;20236;-71
2022/03/06 04:50:11;;;;;;;7.37;3.13;;;;;;;;;;4964824;28;20217;-71
2022/03/06 04:52:39;;;;;;;4.00;2.73;;;;;;;;;;4957460;28;20230;-71
2022/03/06 04:55:05;;;;;;;3.10;2.50;;;;;;;;;;4959522;28;20308;-71
2022/03/06 04:57:31;;;;;;;4.43;2.80;;;;;;;;;;4982340;28;20217;-71
2022/03/06 04:59:56;;;;;;;5.33;3.00;;;;;;;;;;4955432;28;20702;-74
2022/03/06 05:02:24;;;;;;;3.50;2.70;;;;;;;;;;4961513;28;20715;-71
2022/03/06 05:04:52;;;;;;;3.20;2.60;;;;;;;;;;4966822;28;20352;-73
2022/03/06 05:07:20;;;;;;;3.93;2.50;;;;;;;;;;4977987;28;20210;-72
2022/03/06 05:09:50;;;;;;;3.73;2.57;;;;;;;;;;4968981;28;20222;-71
2022/03/06 05:12:16;;;;;;;3.97;3.00;;;;;;;;;;4968841;28;20268;-71
2022/03/06 05:14:41;;;;;;;4.13;2.50;;;;;;;;;;4945550;28;20255;-71
2022/03/06 05:17:07;;;;;;;3.43;2.43;;;;;;;;;;4946895;28;20321;-71
2022/03/06 05:19:32;;;;;;;4.50;2.83;;;;;;;;;;4969527;28;20213;-71
2022/03/06 05:21:58;;;;;;;3.80;2.53;;;;;;;;;;4951228;28;20241;-71
2022/03/06 05:24:24;;;;;;;5.20;3.10;;;;;;;;;;4939276;28;20306;-72
2022/03/06 05:26:49;;;;;;;5.67;2.60;;;;;;;;;;4938940;28;20702;-72
2022/03/06 05:29:18;;;;;;;3.43;2.80;;;;;;;;;;4961063;28;20280;-73
2022/03/06 05:31:43;;;;;;;3.07;2.70;;;;;;;;;;4965495;28;20222;-72
2022/03/06 05:34:09;;;;;;;4.60;2.60;;;;;;;;;;4950987;28;20719;-72
2022/03/06 05:36:34;;;;;;;3.00;2.70;;;;;;;;;;4947504;28;20325;-72
2022/03/06 05:39:00;;;;;;;3.73;2.90;;;;;;;;;;4939250;28;20301;-71
2022/03/06 05:41:30;;;;;;;5.50;2.70;;;;;;;;;;4960687;28;20728;-72
2022/03/06 05:43:55;;;;;;;3.90;2.80;;;;;;;;;;4938992;28;20309;-72
2022/03/06 05:46:21;;;;;;;3.60;2.70;;;;;;;;;;4956007;28;20233;-72
2022/03/06 05:48:49;;;;;;;4.40;3.13;;;;;;;;;;4960356;28;20309;-72
2022/03/06 05:51:17;;;;;;;2.73;2.50;;;;;;;;;;4963850;28;20229;-72
2022/03/06 05:53:45;;;;;;;4.70;2.90;;;;;;;;;;4956463;28;20256;-72
2022/03/06 05:56:11;;;;;;;4.40;2.57;;;;;;;;;;4956045;28;20274;-72
2022/03/06 05:58:42;;;;;;;5.63;2.80;;;;;;;;;;4940445;28;20509;-72
2022/03/06 06:01:12;;;;;;;4.33;2.80;;;;;;;;;;4945073;28;20228;-72
2022/03/06 06:03:38;;;;;;;4.40;2.63;;;;;;;;;;4968742;28;20264;-72
2022/03/06 06:06:06;;;;;;;4.23;2.67;;;;;;;;;;4957615;28;20221;-72
2022/03/06 06:08:31;;;;;;;4.07;2.67;;;;;;;;;;4987792;28;20692;-72
2022/03/06 06:10:59;;;;;;;5.73;2.60;;;;;;;;;;4944480;28;20241;-72
2022/03/06 06:13:27;;;;;;;3.67;2.57;;;;;;;;;;4959089;28;20255;-72
2022/03/06 06:15:52;;;;;;;4.90;2.60;;;;;;;;;;4969243;28;20261;-72
2022/03/06 06:18:22;;;;;;;3.47;2.50;;;;;;;;;;4972216;28;20230;-72
2022/03/06 06:20:48;;;;;;;4.40;2.50;;;;;;;;;;4990268;28;20214;-72
2022/03/06 06:23:17;;;;;;;4.03;2.40;;;;;;;;;;4970228;28;20234;-72
2022/03/06 06:25:45;;;;;;;4.27;2.60;;;;;;;;;;4971575;28;20273;-71
2022/03/06 06:28:10;;;;;;;4.33;2.73;;;;;;;;;;4969593;28;20688;-72
2022/03/06 06:30:36;;;;;;;3.70;2.67;;;;;;;;;;4944339;28;20582;-72
2022/03/06 06:35:29;;;;;;;4.90;2.60;;;;;;;;;;5096244;23;21135;-71
2022/03/06 06:37:54;;;;;;;5.93;2.90;;;;;;;;;;4993686;28;20218;-71
2022/03/06 06:40:20;;;;;;;4.50;2.10;;;;;;;;;;4978394;28;20225;-72
2022/03/06 06:42:48;;;;;;;2.80;2.37;;;;;;;;;;4984469;28;20229;-72
2022/03/06 06:45:16;;;;;;;4.40;2.63;;;;;;;;;;4968820;28;20244;-72
2022/03/06 06:47:41;;;;;;;3.97;2.43;;;;;;;;;;4966926;28;20721;-72
2022/03/06 06:50:07;;;;;;;4.13;2.80;;;;;;;;;;4966772;28;20317;-71
2022/03/06 06:52:33;;;;;;;3.40;2.37;;;;;;;;;;4974237;28;20261;-71
2022/03/06 06:54:58;;;;;;;3.37;2.60;;;;;;;;;;4958160;28;20756;-72
2022/03/06 06:57:27;;;;;;;3.93;3.00;;;;;;;;;;4975802;28;20221;-72
2022/03/06 06:59:55;;;;;;;5.97;2.93;;;;;;;;;;4943557;28;20229;-73
2022/03/06 07:02:20;;;;;;;3.77;2.73;;;;;;;;;;4968007;28;20640;-72
2022/03/06 07:04:46;;;;;;;4.07;3.03;;;;;;;;;;4972840;28;20312;-71
2022/03/06 07:07:14;;;;;;;3.93;3.00;;;;;;;;;;4992899;28;20217;-71
2022/03/06 07:09:44;;;;;;;4.13;2.87;;;;;;;;;;4974487;28;20607;-72
2022/03/06 07:12:11;;;;;;;3.33;2.90;;;;;;;;;;4989282;28;20232;-71
2022/03/06 07:14:41;;;;;;;4.47;3.50;;;;;;;;;;4959624;28;20743;-72
2022/03/06 07:17:07;;;;;;;5.30;4.07;;;;;;;;;;4963594;28;20262;-72
2022/03/06 07:19:33;;;;;;;5.50;3.20;;;;;;;;;;4965084;28;20280;-72
2022/03/06 07:21:59;;;;;;;7.07;3.33;;;;;;;;;;4957106;28;20233;-72
2022/03/06 07:24:27;;;;;;;4.53;3.30;;;;;;;;;;4968637;28;20229;-72
2022/03/06 07:26:52;;;;;;;4.93;3.27;;;;;;;;;;4987590;28;20221;-72
2022/03/06 07:29:18;;;;;;;6.17;3.40;;;;;;;;;;4991983;28;20645;-72
2022/03/06 07:31:43;;;;;;;4.03;3.13;;;;;;;;;;4971960;28;20704;-71
2022/03/06 07:34:09;;;;;;;4.00;2.87;;;;;;;;;;4973963;28;20240;-71
2022/03/06 07:36:37;;;;;;;5.30;2.80;;;;;;;;;;4931220;28;20313;-71
2022/03/06 07:39:02;;;;;;;4.80;3.17;;;;;;;;;;4991086;28;20312;-72
2022/03/06 07:41:28;;;;;;;4.27;3.30;;;;;;;;;;4974330;28;20308;-71
2022/03/06 07:43:53;;;;;;;4.73;3.43;;;;;;;;;;4974065;28;20760;-71
2022/03/06 07:46:19;;;;;;;6.00;3.27;;;;;;;;;;4958861;28;20669;-72
2022/03/06 07:48:44;;;;;;;4.03;2.97;;;;;;;;;;4940182;28;20361;-72
2022/03/06 07:51:10;;;;;;;4.67;2.93;;;;;;;;;;4958650;28;20285;-72
2022/03/06 07:53:38;;;;;;;4.00;2.97;;;;;;;;;;4959370;28;20336;-72
2022/03/06 07:56:06;;;;;;;5.50;3.37;;;;;;;;;;4940417;28;20592;-72
2022/03/06 07:58:32;;;;;;;3.60;2.80;;;;;;;;;;4956215;28;20232;-72
2022/03/06 08:00:57;;;;;;;4.80;2.83;;;;;;;;;;4958700;28;20234;-73
2022/03/06 08:03:23;;;;;;;3.17;2.87;;;;;;;;;;4973767;28;20236;-73
2022/03/06 08:05:53;;;;;;;5.57;3.47;;;;;;;;;;4949276;28;20225;-73
2022/03/06 08:08:22;;;;;;;4.77;2.70;;;;;;;;;;4955159;28;20228;-72
2022/03/06 08:10:50;;;;;;;6.07;3.00;;;;;;;;;;4990243;28;20288;-71
2022/03/06 08:13:15;;;;;;;4.73;2.90;;;;;;;;;;4972074;28;20226;-73
2022/03/06 08:15:43;;;;;;;5.13;2.90;;;;;;;;;;4959097;28;20236;-72
2022/03/06 08:18:11;;;;;;;5.13;2.70;;;;;;;;;;4937553;28;20221;-72
2022/03/06 08:20:36;;;;;;;2.90;2.20;;;;;;;;;;4958853;28;20318;-71
2022/03/06 08:23:02;;;;;;;3.53;2.73;;;;;;;;;;4957666;28;20303;-72
2022/03/06 08:25:27;;;;;;;3.53;2.97;;;;;;;;;;4943987;28;20236;-73
2022/03/06 08:27:56;;;;;;;5.30;3.03;;;;;;;;;;4943303;28;20236;-73
2022/03/06 08:30:27;;;;;;;5.43;2.90;;;;;;;;;;4976091;28;20237;-73
2022/03/06 08:33:11;;;;;;;3.97;2.87;;;;;;;;;;4963214;28;20238;-73
2022/03/06 08:35:37;;;;;;;2.93;2.60;;;;;;;;;;4984427;28;20329;-72
2022/03/06 08:38:02;;;;;;;2.83;2.30;;;;;;;;;;4966931;28;20912;-71
2022/03/06 08:40:31;;;;;;;3.37;2.53;;;;;;;;;;4968005;28;20312;-72
2022/03/06 08:42:59;;;;;;;3.17;2.43;;;;;;;;;;4969792;28;20252;-71
2022/03/06 08:45:25;;;;;;;3.30;2.37;;;;;;;;;;4964066;28;20734;-72
2022/03/06 08:47:54;;;;;;;4.40;2.40;;;;;;;;;;4998917;28;20252;-72
2022/03/06 08:50:19;;;;;;;3.60;2.20;;;;;;;;;;4981177;28;20238;-72
2022/03/06 08:52:47;;;;;;;4.80;2.60;;;;;;;;;;4980929;28;20233;-72
2022/03/06 08:55:13;;;;;;;2.27;1.80;;;;;;;;;;4974567;28;20225;-72
2022/03/06 08:57:41;;;;;;;2.97;2.07;;;;;;;;;;4949964;28;20283;-72
2022/03/06 09:00:08;;;;;;;3.27;2.23;;;;;;;;;;4970220;28;20241;-71
2022/03/06 09:02:35;;;;;;;4.60;2.13;;;;;;;;;;4943662;28;20230;-72
2022/03/06 09:05:04;;;;;;;2.63;2.20;;;;;;;;;;4946393;28;20337;-72
2022/03/06 09:07:29;;;;;;;3.33;2.60;;;;;;;;;;4960350;28;20281;-72
2022/03/06 09:09:57;;;;;;;3.33;2.40;;;;;;;;;;4965410;28;20313;-71
2022/03/06 09:12:26;;;;;;;3.43;2.40;;;;;;;;;;4957249;28;20225;-72
2022/03/06 09:14:52;;;;;;;3.77;2.20;;;;;;;;;;4945085;28;20239;-71
2022/03/06 09:17:21;;;;;;;4.00;2.30;;;;;;;;;;4972337;28;20226;-73
2022/03/06 09:19:46;;;;;;;4.57;3.00;;;;;;;;;;4960295;28;20228;-71
2022/03/06 09:22:12;;;;;;;2.60;2.40;;;;;;;;;;4972268;28;20221;-71
2022/03/06 09:24:37;;;;;;;4.00;2.53;;;;;;;;;;4963730;28;20844;-72
2022/03/06 09:27:05;;;;;;;2.93;2.43;;;;;;;;;;4975352;28;20232;-71
2022/03/06 09:29:30;;;;;;;4.27;2.60;;;;;;;;;;4983270;28;20236;-72
2022/03/06 09:31:55;;;;;;;3.40;2.30;;;;;;;;;;4931428;28;20230;-71
2022/03/06 09:34:21;;;;;;;3.47;2.20;;;;;;;;;;4958936;28;20308;-73
2022/03/06 09:36:47;;;;;;;5.53;2.30;;;;;;;;;;4969167;28;20706;-72
2022/03/06 09:39:16;;;;;;;5.10;2.30;;;;;;;;;;4936256;28;20608;-73
2022/03/06 09:41:43;;;;;;;2.80;2.53;;;;;;;;;;4962063;28;20224;-73
2022/03/06 09:44:14;;;;;;;3.47;2.30;;;;;;;;;;4995077;28;20285;-72
2022/03/06 09:46:40;;;;;;;3.13;2.57;;;;;;;;;;4949030;28;20321;-72
2022/03/06 09:49:06;;;;;;;3.27;2.40;;;;;;;;;;4977161;28;20281;-73
2022/03/06 09:51:35;;;;;;;3.37;2.43;;;;;;;;;;4945590;28;20228;-73
2022/03/06 09:54:00;;;;;;;2.80;2.53;;;;;;;;;;4960205;28;20221;-74
2022/03/06 09:56:28;;;;;;;3.27;2.40;;;;;;;;;;4959723;28;20253;-73
2022/03/06 09:58:54;;;;;;;3.47;2.33;;;;;;;;;;4955735;28;20227;-73
2022/03/06 10:01:22;;;;;;;3.03;2.07;;;;;;;;;;4948676;28;20221;-73
2022/03/06 10:03:48;;;;;;;2.73;2.33;;;;;;;;;;4976326;28;20237;-72
2022/03/06 10:06:13;;;;;;;3.13;2.57;;;;;;;;;;4969976;28;20230;-72
2022/03/06 10:08:45;;;;;;;2.40;2.20;;;;;;;;;;4961511;28;20233;-72
2022/03/06 10:11:13;;;;;;;3.23;2.70;;;;;;;;;;4967807;28;20217;-72
2022/03/06 10:13:43;;;;;;;3.43;2.57;;;;;;;;;;5005246;28;20719;-74
2022/03/06 10:16:18;;;;;;;4.27;2.60;;;;;;;;;;4953380;28;20229;-73
2022/03/06 10:18:51;;;;;;;3.90;2.50;;;;;;;;;;4961577;28;20249;-72
2022/03/06 10:21:25;;;;;;;2.90;2.60;;;;;;;;;;4976948;28;20244;-73
2022/03/06 10:23:58;;;;;;;3.97;2.60;;;;;;;;;;4975758;28;20646;-74
2022/03/06 10:26:28;;;;;;;2.60;2.40;;;;;;;;;;4976892;28;20775;-72
2022/03/06 10:28:58;;;;;;;4.70;2.87;;;;;;;;;;4960408;28;20299;-73
2022/03/06 10:31:27;;;;;;;3.63;2.60;;;;;;;;;;4953740;28;20248;-73
2022/03/06 10:34:08;;;;;;;4.53;2.50;;;;;;;;;;4955476;28;20225;-74
2022/03/06 10:36:46;;;;;;;2.77;2.07;;;;;;;;;;4959668;28;20225;-72
2022/03/06 10:39:17;;;;;;;5.23;2.60;;;;;;;;;;4964895;28;20747;-73
2022/03/06 10:41:45;;;;;;;2.53;2.30;;;;;;;;;;4957157;28;20257;-72
2022/03/06 10:44:14;;;;;;;2.60;2.30;;;;;;;;;;4959378;28;20240;-72
2022/03/06 10:46:42;;;;;;;3.80;2.20;;;;;;;;;;4944453;28;20844;-72
2022/03/06 10:49:12;;;;;;;3.67;2.20;;;;;;;;;;4985502;28;20229;-72
2022/03/06 10:51:45;;;;;;;3.67;2.30;;;;;;;;;;4978726;28;20222;-73
2022/03/06 10:54:13;;;;;;;2.70;2.27;;;;;;;;;;4960418;28;20308;-72
2022/03/06 10:56:39;;;;;;;2.93;2.00;;;;;;;;;;4984109;28;20597;-73
2022/03/06 10:59:07;;;;;;;2.37;1.90;;;;;;;;;;4969732;28;20260;-73
2022/03/06 11:01:32;;;;;;;3.17;2.10;;;;;;;;;;4973018;28;20226;-73
2022/03/06 11:04:00;;;;;;;4.93;3.80;;;;;;;;;;4958126;28;20631;-72
2022/03/06 11:06:28;;;;;;;2.87;2.07;;;;;;;;;;4961458;28;20288;-72
2022/03/06 11:08:53;;;;;;;4.57;2.20;;;;;;;;;;4966203;28;20319;-72
2022/03/06 11:11:19;;;;;;;3.30;2.73;;;;;;;;;;4931754;28;20229;-72
2022/03/06 11:13:45;;;;;;;3.07;2.80;;;;;;;;;;4965841;28;20229;-72
2022/03/06 11:16:10;;;;;;;6.47;5.23;;;;;;;;;;4943172;28;20289;-73
2022/03/06 11:18:36;;;;;;;4.10;3.30;;;;;;;;;;4982888;28;20244;-72
2022/03/06 11:21:04;;;;;;;8.33;5.57;;;;;;;;;;4959562;28;20221;-75
2022/03/06 11:23:51;;;;;;;5.13;4.63;;;;;;;;;;4939366;28;20226;-74
2022/03/06 11:26:32;;;;;;;2.40;2.20;;;;;;;;;;4960241;28;20303;-72
2022/03/06 11:29:39;;;;;;;3.83;2.57;;;;;;;;;;4956348;28;20230;-73
2022/03/06 11:32:07;;;;;;;2.60;2.40;;;;;;;;;;4961532;28;20213;-72
2022/03/06 11:34:37;;;;;;;3.40;2.80;;;;;;;;;;4970835;28;20273;-72
2022/03/06 11:37:04;;;;;;;4.33;3.40;;;;;;;;;;4966379;28;20221;-72
2022/03/06 11:39:30;;;;;;;3.40;2.27;;;;;;;;;;4927800;28;20256;-72
2022/03/06 11:42:05;;;;;;;2.90;2.60;;;;;;;;;;4967985;28;20221;-73
2022/03/06 11:44:39;;;;;;;3.00;2.43;;;;;;;;;;4938032;28;20237;-72
2022/03/06 11:47:32;;;;;;;3.53;3.23;;;;;;;;;;4959964;28;20221;-72
2022/03/06 11:50:01;;;;;;;2.67;1.90;;;;;;;;;;4957536;28;20361;-72
2022/03/06 11:52:28;;;;;;;3.17;2.30;;;;;;;;;;4940699;28;20225;-73
2022/03/06 11:54:54;;;;;;;4.23;2.70;;;;;;;;;;4948493;28;20298;-73
2022/03/06 11:57:34;;;;;;;2.20;2.00;;;;;;;;;;4940294;28;20218;-73
2022/03/06 12:00:21;;;;;;;2.57;2.37;;;;;;;;;;4974184;28;20233;-72
2022/03/06 12:02:53;;;;;;;2.50;2.30;;;;;;;;;;4920926;28;20706;-73
2022/03/06 12:05:42;;;;;;;2.57;2.10;;;;;;;;;;4968611;28;20278;-73
2022/03/06 12:08:10;;;;;;;3.87;2.10;;;;;;;;;;4978470;28;20217;-72
2022/03/06 12:10:38;;;;;;;3.77;2.30;;;;;;;;;;4950036;28;20898;-72
2022/03/06 12:13:03;;;;;;;2.83;2.10;;;;;;;;;;4974841;28;20226;-72
2022/03/06 12:15:32;;;;;;;2.40;2.17;;;;;;;;;;4970935;28;20712;-74
2022/03/06 12:18:06;;;;;;;3.60;2.60;;;;;;;;;;4973664;28;20797;-74
2022/03/06 12:20:40;;;;;;;3.27;2.87;;;;;;;;;;4950300;28;20222;-72
2022/03/06 12:23:07;;;;;;;3.30;2.93;;;;;;;;;;4942258;28;20712;-72
2022/03/06 12:25:34;;;;;;;3.63;3.33;;;;;;;;;;4971232;28;20321;-72
2022/03/06 12:28:02;;;;;;;3.57;2.63;;;;;;;;;;4973139;28;20708;-72
2022/03/06 12:30:28;;;;;;;2.60;2.40;;;;;;;;;;4990071;28;20225;-73
2022/03/06 12:32:54;;;;;;;4.00;2.03;;;;;;;;;;4984247;28;20725;-72
2022/03/06 12:35:25;;;;;;;2.40;2.20;;;;;;;;;;4963620;28;20233;-73
2022/03/06 12:37:56;;;;;;;2.37;2.17;;;;;;;;;;4959722;28;20217;-73
2022/03/06 12:40:26;;;;;;;2.40;2.10;;;;;;;;;;4952756;28;20214;-75
2022/03/06 12:42:58;;;;;;;3.70;2.23;;;;;;;;;;4953897;28;20720;-71
2022/03/06 12:45:24;;;;;;;3.03;2.17;;;;;;;;;;4970853;28;20250;-74
2022/03/06 12:47:54;;;;;;;1.97;1.77;;;;;;;;;;4958512;28;20233;-74
2022/03/06 12:50:21;;;;;;;2.23;2.00;;;;;;;;;;4941160;28;20747;-71
2022/03/06 12:52:49;;;;;;;3.33;2.60;;;;;;;;;;4957053;28;20246;-72
2022/03/06 12:55:20;;;;;;;3.70;2.30;;;;;;;;;;4951100;28;20719;-72
2022/03/06 12:57:54;;;;;;;2.63;2.37;;;;;;;;;;4963506;28;20709;-72
2022/03/06 13:00:23;;;;;;;2.47;2.27;;;;;;;;;;4969807;28;20279;-72
2022/03/06 13:02:58;;;;;;;2.27;2.07;;;;;;;;;;4988100;28;20293;-72
2022/03/06 13:05:25;;;;;;;1.90;1.80;;;;;;;;;;4938560;28;20229;-72
2022/03/06 13:07:53;;;;;;;2.33;1.97;;;;;;;;;;4969547;28;20591;-72
2022/03/06 13:10:22;;;;;;;2.53;2.10;;;;;;;;;;4979568;28;20614;-72
2022/03/06 13:12:51;;;;;;;1.83;1.73;;;;;;;;;;4995381;28;20225;-72
2022/03/06 13:15:20;;;;;;;2.50;2.30;;;;;;;;;;4947098;28;20239;-72
2022/03/06 13:17:56;;;;;;;2.87;2.13;;;;;;;;;;4958915;28;20309;-73
2022/03/06 13:20:30;;;;;;;2.30;2.10;;;;;;;;;;4962760;28;20217;-73
2022/03/06 13:22:56;;;;;;;2.20;2.07;;;;;;;;;;4975835;28;20328;-74
2022/03/06 13:25:24;;;;;;;2.73;1.90;;;;;;;;;;4960002;28;20228;-73
2022/03/06 13:27:53;;;;;;;3.87;1.97;;;;;;;;;;4972964;28;20233;-72
2022/03/06 13:30:20;;;;;;;2.00;1.77;;;;;;;;;;4954675;28;20244;-73
2022/03/06 13:32:50;;;;;;;3.03;1.80;;;;;;;;;;4978270;28;20708;-71
2022/03/06 13:35:35;;;;;;;2.00;1.70;;;;;;;;;;4973129;28;20224;-71
2022/03/06 13:38:11;;;;;;;2.40;2.10;;;;;;;;;;4986947;28;20233;-71
2022/03/06 13:40:43;;;;;;;2.97;2.37;;;;;;;;;;4960340;28;20235;-72
2022/03/06 13:43:09;;;;;;;3.43;2.17;;;;;;;;;;4961826;28;20240;-74
2022/03/06 13:45:35;;;;;;;2.20;2.10;;;;;;;;;;4972937;28;20230;-73
2022/03/06 13:48:06;;;;;;;4.37;2.80;;;;;;;;;;4961406;28;20226;-73
2022/03/06 13:50:50;;;;;;;3.20;2.10;;;;;;;;;;4946865;28;20651;-73
2022/03/06 13:53:16;;;;;;;4.03;2.30;;;;;;;;;;4978356;28;20232;-73
2022/03/06 13:55:58;;;;;;;3.07;2.30;;;;;;;;;;4963407;28;20317;-73
2022/03/06 13:58:24;;;;;;;3.30;2.10;;;;;;;;;;4956060;28;20232;-73
2022/03/06 14:00:52;;;;;;;2.87;1.93;;;;;;;;;;4967363;28;20245;-74
2022/03/06 14:03:30;;;;;;;1.97;1.80;;;;;;;;;;4974757;28;20233;-74
2022/03/06 14:05:56;;;;;;;3.83;2.40;;;;;;;;;;4975266;28;20232;-74
2022/03/06 14:08:32;;;;;;;2.83;2.20;;;;;;;;;;4976103;28;20217;-74
2022/03/06 14:11:00;;;;;;;2.10;1.90;;;;;;;;;;4975661;28;20327;-74
2022/03/06 14:13:32;;;;;;;2.50;1.97;;;;;;;;;;4955065;28;20248;-74
2022/03/06 14:16:09;;;;;;;4.73;2.40;;;;;;;;;;4995115;28;20222;-73
2022/03/06 14:18:41;;;;;;;2.93;1.90;;;;;;;;;;4958808;28;20704;-74
2022/03/06 14:21:25;;;;;;;2.63;2.10;;;;;;;;;;4974705;28;20254;-73
2022/03/06 14:24:00;;;;;;;3.87;2.27;;;;;;;;;;4960853;28;20237;-72
2022/03/06 14:26:29;;;;;;;3.00;2.20;;;;;;;;;;4953822;28;20227;-75
2022/03/06 14:28:57;;;;;;;3.07;2.10;;;;;;;;;;4960137;28;20236;-74
2022/03/06 14:31:25;;;;;;;3.80;2.47;;;;;;;;;;4969069;28;20245;-74
2022/03/06 14:33:51;;;;;;;4.43;3.50;;;;;;;;;;4976803;28;20214;-74
2022/03/06 14:36:20;;;;;;;6.33;3.77;;;;;;;;;;4975038;28;20310;-74
2022/03/06 14:38:46;;;;;;;4.50;2.63;;;;;;;;;;4973280;28;20225;-74
2022/03/06 14:41:11;;;;;;;2.90;2.37;;;;;;;;;;4977218;28;20688;-73
2022/03/06 14:43:39;;;;;;;3.50;2.30;;;;;;;;;;4970220;28;20241;-73
2022/03/06 14:46:07;;;;;;;2.93;2.60;;;;;;;;;;4955337;28;20245;-74
2022/03/06 14:48:33;;;;;;;2.37;2.00;;;;;;;;;;4978844;28;20225;-74
2022/03/06 14:51:01;;;;;;;2.83;2.20;;;;;;;;;;4963884;28;20221;-73
2022/03/06 14:53:28;;;;;;;3.50;1.97;;;;;;;;;;4936258;28;20225;-73